Aérodrome :
LOGIN :

S'inscrire | Disclaimer

   EN    FR    IT 

 










Légende :    VFR   VFR Marginal   IFR   IFR Intensif   IFR Très Intensif
Visi : 
Plafond : 
>= 8 km
>= 3000ft
5 à 8 km
1000 à 3000 ft
1500m à 5 km
500 à 1000 ft
800 à 1500m
200 à 500 ft
< 800m
< 200 ft
Symboles :   Orages  Brouillard  Fortes neiges  Fortes précipitations  Vent > 20 kt
SIGMETs :   Divers  Orages  Givrage  Turbulence  Onde Orograph.  Cendres Volcan.






- Altitude de l'aérodrome : 502 ft
- Code IATA : ORK


EICK - Cork

DERNIER METAR :
  • 100930Z 21027G43KT 3000 -RADZ OVC002 12/11 Q0998 TEMPO 0800

METARs EXPIRÉS :
  • 100900Z 20023G36KT 2000 -RADZ OVC002 11/11 Q0998 TEMPO 0800
  • 100830Z 20023G33KT 1800 -RADZ OVC002 11/11 Q0999 TEMPO 0800
  • 100800Z 21027G37KT 2000 -RADZ OVC002 11/11 Q1000 TEMPO 0800
  • 100730Z 21027G39KT 0900 R16/P2000 R34/P2000 -RADZ FG OVC002 12/11 Q1001 NOSIG
  • 100700Z 21027G37KT 2000 -RADZ OVC002 12/11 Q1001 TEMPO 1500

TAF TAF EICK
Valide du 10 à 06h jusqu'au 11 à 06h UTC


100500Z 1006/1106 20020G33KT 4000 -RADZ BKN005
BECMG 1006/1008 21025G38KT
TEMPO 1006/1011 1500 RADZ BR BKN002
PROB40
TEMPO 1006/1010 0700 FG BKN001
BECMG 1008/1010 20028G43KT
BECMG 1011/1013 28025G40KT 9999 FEW012 SCT025
BECMG 1013/1015 27020G32KT
TEMPO 1013/1018 5000 SHRA BKN012 SCT018CB
BECMG 1015/1017 26015G26KT
BECMG 1018/1020 26013KT
TEMPO 1018/1103 -SHRA SCT012 SCT018CB
BECMG 1102/1104 24017G28KT
TEMPO 1103/1106 4000 SHRA BKN012 SCT018CB
BECMG 1104/1106 27017G28KT



MET'MAP, la Météo Aéronautique d'un coup d'oeil ! - Copyright ORBIFLY Décembre 2007 - Disclaimer

ORBIFLY MET'MAP TEAM :

Programmation & Développement : Alexandra Zaïnal
Sur une idée originale de : Baudouin d'Aumeries
Assistance à la programmation : Marc-Olivier Méhu
Soutien technique & logistique : Manuel Goepfert

Contact : metmap@orbifly.com




SOURCES & CREDITS :

   NOAA